Time;durP1;ratioP1;P1;durP2;ratioP2;P2;SDS_P1;SDS_P2;PMS_P1;PMS_P2;Temp;Humidity;BMP_temperature;BMP_pressure;BME280_temperature;BME280_humidity;BME280_pressure;Samples;Min_cycle;Max_cycle;Signal;HPM_P1;HPM_P2
2024/02/10 00:00:25;;;;;;;15.32;5.70;;;10.30;99.90;;;;;;4946200;28;20648;-61
2024/02/10 00:02:51;;;;;;;14.90;5.32;;;10.30;99.90;;;;;;4948571;28;20031;-62
2024/02/10 00:05:17;;;;;;;12.50;5.85;;;10.30;99.90;;;;;;4950514;28;20495;-62
2024/02/10 00:07:51;;;;;;;14.85;5.43;;;10.30;99.90;;;;;;4951898;28;20602;-61
2024/02/10 00:10:17;;;;;;;11.77;4.45;;;10.20;99.90;;;;;;4944365;28;20023;-62
2024/02/10 00:12:42;;;;;;;14.20;5.63;;;10.30;99.90;;;;;;4951193;28;20460;-62
2024/02/10 00:15:10;;;;;;;12.02;4.97;;;10.30;99.90;;;;;;4949017;28;20090;-62
2024/02/10 00:17:35;;;;;;;13.70;5.53;;;10.20;99.90;;;;;;4951641;28;20479;-62
2024/02/10 00:20:01;;;;;;;13.18;5.07;;;10.20;99.90;;;;;;4950498;28;20154;-62
2024/02/10 00:22:27;;;;;;;11.82;5.55;;;10.20;99.90;;;;;;4949824;28;20067;-62
2024/02/10 00:24:56;;;;;;;12.80;5.28;;;10.20;99.90;;;;;;4950645;28;20027;-62
2024/02/10 00:27:22;;;;;;;13.27;5.57;;;10.20;99.90;;;;;;4952720;28;20019;-62
2024/02/10 00:29:47;;;;;;;13.63;6.47;;;10.20;99.90;;;;;;4951918;28;20042;-62
2024/02/10 00:32:13;;;;;;;15.30;5.60;;;10.20;99.90;;;;;;4952593;28;20049;-61
2024/02/10 00:34:40;;;;;;;15.68;6.00;;;10.10;99.90;;;;;;4950226;28;20027;-61
2024/02/10 00:37:06;;;;;;;12.70;5.80;;;10.20;99.90;;;;;;4951272;28;20229;-61
2024/02/10 00:39:31;;;;;;;13.98;5.57;;;10.10;99.90;;;;;;4950379;28;20518;-61
2024/02/10 00:41:57;;;;;;;12.93;6.03;;;10.10;99.90;;;;;;4955304;28;20045;-62
2024/02/10 00:44:23;;;;;;;16.83;7.07;;;10.10;99.90;;;;;;4951851;28;20125;-61
2024/02/10 00:46:49;;;;;;;14.95;5.70;;;10.10;99.90;;;;;;4953335;28;20383;-61
2024/02/10 00:49:15;;;;;;;14.80;5.95;;;10.10;99.90;;;;;;4951999;28;20030;-61
2024/02/10 00:51:40;;;;;;;14.45;6.03;;;10.10;99.90;;;;;;4946977;28;20604;-62
2024/02/10 00:54:06;;;;;;;12.80;6.07;;;10.00;99.90;;;;;;4952803;28;20032;-62
2024/02/10 00:56:33;;;;;;;14.20;6.00;;;10.00;99.90;;;;;;4952038;28;20038;-62
2024/02/10 00:58:59;;;;;;;15.75;5.80;;;10.00;99.90;;;;;;4949019;28;20038;-62
2024/02/10 01:01:28;;;;;;;13.88;5.72;;;10.00;99.90;;;;;;4950370;28;20019;-63
2024/02/10 01:03:55;;;;;;;12.20;5.10;;;10.00;99.90;;;;;;4950582;28;20494;-63
2024/02/10 01:06:21;;;;;;;15.40;6.18;;;10.00;99.90;;;;;;4950959;28;20027;-64
2024/02/10 01:08:48;;;;;;;10.45;4.25;;;10.00;99.90;;;;;;4950331;28;20031;-62
2024/02/10 01:11:19;;;;;;;13.90;5.45;;;10.00;99.90;;;;;;4951127;28;20032;-62
2024/02/10 01:13:45;;;;;;;13.35;5.18;;;10.00;99.90;;;;;;4950883;28;20031;-63
2024/02/10 01:16:15;;;;;;;13.35;5.18;;;9.90;99.90;;;;;;4953336;28;20058;-63
2024/02/10 01:18:41;;;;;;;11.20;4.90;;;10.00;99.90;;;;;;4953857;28;20842;-63
2024/02/10 01:21:09;;;;;;;12.65;4.50;;;10.00;99.90;;;;;;4951818;28;20099;-63
2024/02/10 01:23:39;;;;;;;11.30;4.82;;;9.90;99.90;;;;;;4932592;28;20030;-63
2024/02/10 01:26:06;;;;;;;11.88;4.70;;;9.90;99.90;;;;;;4948579;28;20027;-63
2024/02/10 01:28:34;;;;;;;10.35;4.45;;;9.90;99.90;;;;;;4949948;28;20757;-62
2024/02/10 01:31:00;;;;;;;9.38;4.03;;;9.90;99.90;;;;;;4942806;28;20458;-62
2024/02/10 01:33:28;;;;;;;9.30;3.88;;;10.00;99.90;;;;;;4947829;28;20027;-63
2024/02/10 01:35:54;;;;;;;8.82;4.03;;;10.00;99.90;;;;;;4950921;28;20027;-63
2024/02/10 01:38:20;;;;;;;9.32;3.88;;;9.90;99.90;;;;;;4952967;28;20027;-63
2024/02/10 01:40:46;;;;;;;12.13;4.18;;;10.00;99.90;;;;;;4952926;28;20382;-63
2024/02/10 01:43:12;;;;;;;9.43;4.05;;;10.00;99.90;;;;;;4950928;28;20042;-63
2024/02/10 01:45:38;;;;;;;11.38;3.90;;;9.90;99.90;;;;;;4952361;28;20593;-63
2024/02/10 01:48:08;;;;;;;9.15;4.10;;;10.00;99.90;;;;;;4950690;28;20020;-63
2024/02/10 01:50:35;;;;;;;10.73;3.47;;;9.90;99.90;;;;;;4948014;28;20321;-64
2024/02/10 01:53:02;;;;;;;11.05;4.65;;;9.90;99.90;;;;;;4951199;28;20030;-63
2024/02/10 01:55:28;;;;;;;10.73;3.78;;;10.00;99.90;;;;;;4937716;28;20442;-63
2024/02/10 01:57:57;;;;;;;10.75;4.05;;;9.90;99.90;;;;;;4954846;28;20118;-63
2024/02/10 02:00:25;;;;;;;10.05;4.18;;;9.90;99.90;;;;;;4950718;28;20058;-63
2024/02/10 02:02:51;;;;;;;11.15;3.80;;;9.90;99.90;;;;;;4951487;28;20035;-63
2024/02/10 02:05:18;;;;;;;11.50;4.15;;;9.80;99.90;;;;;;4948033;28;20431;-63
2024/02/10 02:07:48;;;;;;;9.65;4.32;;;9.80;99.90;;;;;;4950260;28;20078;-63
2024/02/10 02:10:14;;;;;;;9.85;4.20;;;9.80;99.90;;;;;;4946455;28;20027;-63
2024/02/10 02:12:50;;;;;;;11.63;4.32;;;9.80;99.90;;;;;;4949459;28;20039;-63
2024/02/10 02:15:22;;;;;;;10.95;4.35;;;9.80;99.90;;;;;;4950007;28;20043;-63
2024/02/10 02:17:51;;;;;;;13.20;4.55;;;9.80;99.90;;;;;;4953288;28;20561;-63
2024/02/10 02:20:18;;;;;;;10.07;4.50;;;9.80;99.90;;;;;;4946266;28;20044;-63
2024/02/10 02:22:49;;;;;;;10.73;4.63;;;9.80;99.90;;;;;;4953744;28;20037;-63
2024/02/10 02:25:15;;;;;;;11.95;4.63;;;9.70;99.90;;;;;;4946260;29;20054;-63
2024/02/10 02:27:41;;;;;;;14.18;5.25;;;9.80;99.90;;;;;;4950232;28;20383;-63
2024/02/10 02:30:07;;;;;;;12.52;4.55;;;9.80;99.90;;;;;;4946733;29;20035;-63
2024/02/10 02:32:35;;;;;;;9.18;4.40;;;9.80;99.90;;;;;;4951254;29;20030;-63
2024/02/10 02:35:08;;;;;;;8.57;3.75;;;9.80;99.90;;;;;;4948299;29;20066;-62
2024/02/10 02:37:40;;;;;;;9.65;4.45;;;9.80;99.90;;;;;;4951092;29;20539;-62
2024/02/10 02:40:07;;;;;;;8.80;3.35;;;9.70;99.90;;;;;;4946932;29;20468;-63
2024/02/10 02:42:33;;;;;;;11.10;3.50;;;9.70;99.90;;;;;;4951024;29;20023;-63
2024/02/10 02:45:03;;;;;;;9.35;3.60;;;9.80;99.90;;;;;;4948263;29;20039;-63
2024/02/10 02:47:32;;;;;;;7.50;3.13;;;9.70;99.90;;;;;;4950948;29;20023;-63
2024/02/10 02:49:59;;;;;;;10.43;3.50;;;9.70;99.90;;;;;;4948161;29;20035;-63
2024/02/10 02:52:27;;;;;;;7.65;3.10;;;9.70;99.90;;;;;;4931666;29;20028;-63
2024/02/10 02:54:53;;;;;;;9.70;3.65;;;9.70;99.90;;;;;;4949624;29;20034;-63
2024/02/10 02:57:19;;;;;;;8.55;2.88;;;9.70;99.90;;;;;;4934165;29;20425;-63
2024/02/10 02:59:46;;;;;;;7.97;3.38;;;9.60;99.90;;;;;;4949849;29;20471;-63
2024/02/10 03:02:12;;;;;;;8.98;3.20;;;9.60;99.90;;;;;;4948445;29;20462;-63
2024/02/10 03:04:42;;;;;;;8.20;2.80;;;9.60;99.90;;;;;;4951117;29;20110;-63
2024/02/10 03:07:08;;;;;;;7.55;3.17;;;9.60;99.90;;;;;;4948252;29;20039;-63
2024/02/10 03:09:34;;;;;;;7.28;3.00;;;9.60;99.90;;;;;;4950446;29;20393;-62
2024/02/10 03:11:59;;;;;;;7.65;2.92;;;9.60;99.90;;;;;;4948345;29;20106;-62
2024/02/10 03:14:25;;;;;;;7.85;2.97;;;9.60;99.90;;;;;;4950430;29;20039;-62
2024/02/10 03:16:51;;;;;;;7.63;3.40;;;9.60;99.90;;;;;;4948479;29;20023;-62
2024/02/10 03:19:17;;;;;;;7.03;2.90;;;9.60;99.90;;;;;;4949469;28;20081;-62
2024/02/10 03:21:42;;;;;;;7.55;2.70;;;9.60;99.90;;;;;;4946846;29;20047;-62
2024/02/10 03:24:08;;;;;;;7.53;2.55;;;9.60;99.90;;;;;;4949836;29;20410;-62
2024/02/10 03:26:37;;;;;;;6.95;2.85;;;9.60;99.90;;;;;;4948085;29;20059;-62
2024/02/10 03:29:06;;;;;;;7.83;2.93;;;9.60;99.90;;;;;;4950265;29;20023;-62
2024/02/10 03:31:32;;;;;;;5.95;2.20;;;9.50;99.90;;;;;;4948450;29;20023;-62
2024/02/10 03:33:58;;;;;;;7.13;2.75;;;9.60;99.90;;;;;;4950495;29;20083;-62
2024/02/10 03:36:27;;;;;;;7.25;2.42;;;9.60;99.90;;;;;;4948021;29;20218;-62
2024/02/10 03:39:02;;;;;;;6.60;2.65;;;9.60;99.90;;;;;;4951252;28;20523;-62
2024/02/10 03:41:28;;;;;;;6.72;2.70;;;9.60;99.90;;;;;;4951338;29;20031;-62
2024/02/10 03:43:54;;;;;;;7.38;2.80;;;9.60;99.90;;;;;;4953244;29;20035;-62
2024/02/10 03:46:21;;;;;;;7.18;2.80;;;9.50;99.90;;;;;;4949968;29;20031;-62
2024/02/10 03:48:48;;;;;;;7.13;2.75;;;9.60;99.90;;;;;;4954378;29;20031;-62
2024/02/10 03:51:14;;;;;;;6.20;2.60;;;9.60;99.90;;;;;;4950339;29;20107;-62
2024/02/10 03:53:40;;;;;;;7.93;2.70;;;9.60;99.90;;;;;;4955995;28;20447;-62
2024/02/10 03:56:09;;;;;;;6.80;2.80;;;9.60;99.90;;;;;;4955789;28;20042;-62
2024/02/10 03:58:40;;;;;;;6.88;2.67;;;9.50;99.90;;;;;;4954356;29;20023;-62
2024/02/10 04:01:05;;;;;;;7.20;2.38;;;9.60;99.90;;;;;;4953680;29;20027;-62
2024/02/10 04:03:32;;;;;;;6.50;2.10;;;9.50;99.90;;;;;;4954031;29;20146;-62
2024/02/10 04:05:58;;;;;;;8.82;2.63;;;9.50;99.90;;;;;;4952624;29;20030;-62
2024/02/10 04:08:24;;;;;;;6.85;2.45;;;9.60;99.90;;;;;;4953481;29;20027;-62
2024/02/10 04:10:50;;;;;;;7.60;2.47;;;9.60;99.90;;;;;;4952381;29;20502;-62
2024/02/10 04:13:16;;;;;;;7.50;2.33;;;9.60;99.90;;;;;;4953330;29;20019;-62
2024/02/10 04:15:43;;;;;;;6.88;2.13;;;9.60;99.90;;;;;;4952375;29;20471;-62
2024/02/10 04:18:08;;;;;;;6.07;2.20;;;9.60;99.90;;;;;;4954363;28;20111;-62
2024/02/10 04:20:34;;;;;;;8.38;2.40;;;9.50;99.90;;;;;;4951991;28;20622;-62
2024/02/10 04:23:03;;;;;;;5.95;2.05;;;9.60;99.90;;;;;;4936395;29;20085;-60
2024/02/10 04:25:31;;;;;;;4.45;1.67;;;9.60;99.90;;;;;;4954174;29;20042;-61
2024/02/10 04:28:02;;;;;;;6.47;2.30;;;9.60;99.90;;;;;;4953810;29;20024;-61
2024/02/10 04:30:30;;;;;;;6.18;2.08;;;9.60;99.90;;;;;;4951717;29;20055;-61
2024/02/10 04:32:55;;;;;;;5.68;2.00;;;9.60;99.90;;;;;;4953770;29;20038;-61
2024/02/10 04:35:22;;;;;;;5.22;2.03;;;9.50;99.90;;;;;;4951708;29;20023;-61
2024/02/10 04:37:55;;;;;;;5.88;2.10;;;9.50;99.90;;;;;;4953551;29;20399;-61
2024/02/10 04:40:25;;;;;;;8.52;2.30;;;9.50;99.90;;;;;;4951604;29;20023;-62
2024/02/10 04:42:52;;;;;;;7.28;2.35;;;9.50;99.90;;;;;;4950677;28;20091;-61
2024/02/10 04:45:25;;;;;;;6.15;2.15;;;9.50;99.90;;;;;;4952559;28;20027;-61
2024/02/10 04:47:51;;;;;;;6.07;2.08;;;9.50;99.90;;;;;;4949143;29;20035;-61
2024/02/10 04:50:18;;;;;;;5.72;2.00;;;9.50;99.90;;;;;;4949895;28;20035;-61
2024/02/10 04:52:44;;;;;;;6.28;2.03;;;9.50;99.90;;;;;;4953142;29;20034;-61
2024/02/10 04:55:10;;;;;;;6.55;2.05;;;9.40;99.90;;;;;;4951426;29;20016;-61
2024/02/10 04:57:36;;;;;;;7.13;2.03;;;9.40;99.90;;;;;;4953165;29;20057;-61
2024/02/10 05:00:10;;;;;;;5.70;2.22;;;9.30;99.90;;;;;;4954477;28;20042;-61
2024/02/10 05:02:36;;;;;;;5.50;1.95;;;9.30;99.90;;;;;;4954409;28;20070;-61
2024/02/10 05:05:04;;;;;;;6.75;2.20;;;9.20;99.90;;;;;;4953465;29;20091;-61
2024/02/10 05:07:30;;;;;;;7.13;2.55;;;9.10;99.90;;;;;;4953471;29;20031;-61
2024/02/10 05:10:00;;;;;;;6.75;2.10;;;9.10;99.90;;;;;;4951382;29;20463;-61
2024/02/10 05:12:26;;;;;;;;;;;9.10;99.90;;;;;;4953300;29;20366;-61
2024/02/10 05:14:52;;;;;;;6.78;2.50;;;9.00;99.90;;;;;;4951705;29;19910;-61
2024/02/10 05:17:19;;;;;;;11.02;2.80;;;9.10;99.90;;;;;;4952625;29;20023;-61
2024/02/10 05:19:44;;;;;;;5.85;2.30;;;9.00;99.90;;;;;;4952079;29;20094;-61
2024/02/10 05:22:13;;;;;;;6.43;2.67;;;8.90;99.90;;;;;;4950125;29;20027;-61
2024/02/10 05:24:48;;;;;;;7.78;2.50;;;9.00;99.90;;;;;;4952193;29;20054;-61
2024/02/10 05:27:14;;;;;;;7.30;2.53;;;8.90;99.90;;;;;;4952173;29;20031;-61
2024/02/10 05:29:43;;;;;;;6.70;2.80;;;9.00;99.90;;;;;;4952507;29;20035;-61
2024/02/10 05:32:08;;;;;;;9.07;2.70;;;9.00;99.90;;;;;;4952592;28;20538;-61
2024/02/10 05:34:34;;;;;;;7.30;3.10;;;8.90;99.90;;;;;;4952354;29;20024;-61
2024/02/10 05:37:00;;;;;;;6.00;2.42;;;8.80;99.90;;;;;;4952893;29;20031;-61
2024/02/10 05:39:28;;;;;;;7.95;3.03;;;8.80;99.90;;;;;;4951755;29;20046;-61
2024/02/10 05:41:54;;;;;;;8.23;3.20;;;8.80;99.90;;;;;;4952546;29;20360;-62
2024/02/10 05:44:21;;;;;;;7.15;2.80;;;8.70;99.90;;;;;;4951910;29;20027;-61
2024/02/10 05:46:46;;;;;;;7.50;2.75;;;8.70;99.90;;;;;;4949703;29;20027;-61
2024/02/10 05:49:12;;;;;;;7.60;3.03;;;8.70;99.90;;;;;;4951458;29;20123;-61
2024/02/10 05:51:40;;;;;;;7.20;2.80;;;8.70;99.90;;;;;;4950125;29;20495;-61
2024/02/10 05:54:06;;;;;;;9.10;2.78;;;8.60;99.90;;;;;;4951286;29;20023;-61
2024/02/10 05:56:35;;;;;;;7.20;2.67;;;8.70;99.90;;;;;;4952360;29;20395;-61
2024/02/10 05:59:03;;;;;;;7.60;2.72;;;8.70;99.90;;;;;;4951958;29;20061;-61
2024/02/10 06:01:29;;;;;;;10.55;2.65;;;8.70;99.90;;;;;;4951400;28;20027;-61
2024/02/10 06:03:55;;;;;;;8.15;3.03;;;8.70;99.90;;;;;;4952038;29;20137;-60
2024/02/10 06:06:21;;;;;;;7.90;3.13;;;8.70;99.90;;;;;;4951644;29;20027;-61
2024/02/10 06:08:47;;;;;;;7.85;3.22;;;8.60;99.90;;;;;;4951703;29;20360;-61
2024/02/10 06:11:18;;;;;;;7.75;3.05;;;8.50;99.90;;;;;;4951069;29;20019;-61
2024/02/10 06:13:49;;;;;;;7.63;2.97;;;8.50;99.90;;;;;;4947844;29;20030;-61
2024/02/10 06:16:15;;;;;;;7.72;3.13;;;8.50;99.90;;;;;;4948048;29;20028;-61
2024/02/10 06:18:41;;;;;;;9.30;3.80;;;8.50;99.90;;;;;;4951492;29;20055;-61
2024/02/10 06:21:07;;;;;;;9.32;3.78;;;8.50;99.90;;;;;;4948871;29;20027;-61
2024/02/10 06:23:34;;;;;;;9.18;3.78;;;8.50;99.90;;;;;;4950917;29;20055;-61
2024/02/10 06:25:59;;;;;;;11.43;3.25;;;8.60;99.90;;;;;;4950661;29;20451;-61
2024/02/10 06:28:25;;;;;;;9.25;3.72;;;8.50;99.90;;;;;;4950688;29;20019;-61
2024/02/10 06:30:52;;;;;;;8.13;3.83;;;8.60;99.90;;;;;;4951435;29;20024;-61
2024/02/10 06:33:23;;;;;;;8.57;3.35;;;8.60;99.90;;;;;;4950682;29;20023;-62
2024/02/10 06:35:49;;;;;;;9.90;3.70;;;8.50;99.90;;;;;;4951959;29;20527;-60
2024/02/10 06:38:15;;;;;;;12.25;3.80;;;8.50;99.90;;;;;;4950701;29;20061;-60
2024/02/10 06:40:41;;;;;;;8.00;3.25;;;8.50;99.90;;;;;;4951531;29;20031;-60
2024/02/10 06:43:12;;;;;;;8.25;3.78;;;8.50;99.90;;;;;;4950615;29;20042;-61
2024/02/10 06:45:41;;;;;;;8.43;3.70;;;8.50;99.90;;;;;;4950060;29;20031;-60
2024/02/10 06:48:11;;;;;;;9.60;3.65;;;8.50;99.90;;;;;;4950404;29;20038;-61
2024/02/10 06:50:38;;;;;;;11.85;4.50;;;8.40;99.90;;;;;;4948159;29;20484;-60
2024/02/10 06:53:04;;;;;;;8.55;3.58;;;8.40;99.90;;;;;;4950878;29;20423;-62
2024/02/10 06:55:30;;;;;;;10.18;4.00;;;8.40;99.90;;;;;;4951125;29;20057;-62
2024/02/10 06:57:56;;;;;;;10.15;3.95;;;8.40;99.90;;;;;;4950989;29;20055;-61
2024/02/10 07:00:22;;;;;;;9.25;3.70;;;8.30;99.90;;;;;;4950700;29;20038;-60
2024/02/10 07:02:49;;;;;;;8.98;4.00;;;8.40;99.90;;;;;;4950566;29;20043;-62
2024/02/10 07:05:19;;;;;;;8.00;3.47;;;8.50;99.90;;;;;;4950248;29;20027;-62
2024/02/10 07:07:49;;;;;;;8.75;3.50;;;8.40;99.90;;;;;;4953469;28;20137;-62
2024/02/10 07:10:22;;;;;;;8.90;3.58;;;8.40;99.90;;;;;;4948992;28;20032;-61
2024/02/10 07:12:50;;;;;;;8.40;3.25;;;8.40;99.90;;;;;;4950878;28;20023;-62
2024/02/10 07:15:20;;;;;;;9.32;3.65;;;8.50;99.90;;;;;;4950206;29;20031;-62
2024/02/10 07:17:49;;;;;;;10.32;3.80;;;8.50;99.90;;;;;;4950871;29;20034;-62
2024/02/10 07:20:20;;;;;;;10.32;3.20;;;8.50;99.90;;;;;;4950500;29;20082;-61
2024/02/10 07:23:00;;;;;;;8.00;3.17;;;8.50;99.90;;;;;;4950766;29;20023;-61
2024/02/10 07:25:30;;;;;;;7.45;3.08;;;8.60;99.90;;;;;;4950475;28;20031;-61
2024/02/10 07:28:03;;;;;;;7.65;3.20;;;8.60;99.90;;;;;;4952379;28;20131;-61
2024/02/10 07:30:33;;;;;;;8.30;3.22;;;8.60;99.90;;;;;;4953351;28;20231;-61
2024/02/10 07:33:08;;;;;;;7.30;3.03;;;8.70;99.90;;;;;;4934368;29;20023;-61
2024/02/10 07:35:35;;;;;;;10.23;3.75;;;8.70;99.90;;;;;;4949845;28;20019;-61
2024/02/10 07:38:01;;;;;;;7.20;2.70;;;8.80;99.90;;;;;;4950674;29;20363;-61
2024/02/10 07:40:28;;;;;;;7.63;3.08;;;8.90;99.90;;;;;;4948864;29;20074;-61
2024/02/10 07:42:53;;;;;;;8.68;3.13;;;8.90;99.90;;;;;;4949291;29;20433;-61
2024/02/10 07:45:20;;;;;;;10.48;3.53;;;8.90;99.90;;;;;;4949092;29;20035;-61
2024/02/10 07:47:46;;;;;;;9.20;3.33;;;8.90;99.90;;;;;;4949293;29;20034;-61
2024/02/10 07:50:13;;;;;;;7.18;3.25;;;8.90;99.90;;;;;;4949309;29;20027;-62
2024/02/10 07:52:41;;;;;;;8.88;3.40;;;8.90;99.90;;;;;;4949096;29;20027;-62
2024/02/10 07:55:12;;;;;;;8.23;2.60;;;9.00;99.90;;;;;;4949116;29;20022;-62
2024/02/10 07:57:39;;;;;;;7.32;2.55;;;9.00;99.90;;;;;;4947225;29;20035;-62
2024/02/10 08:00:06;;;;;;;7.57;3.00;;;9.00;99.90;;;;;;4950235;29;20031;-62
2024/02/10 08:02:31;;;;;;;8.63;3.10;;;9.10;99.90;;;;;;4950899;29;20023;-62
2024/02/10 08:04:58;;;;;;;6.35;2.50;;;9.10;99.90;;;;;;4948020;29;20032;-62
2024/02/10 08:07:33;;;;;;;9.90;3.00;;;9.20;99.90;;;;;;4949985;29;20624;-62
2024/02/10 08:10:00;;;;;;;6.75;2.60;;;9.20;99.90;;;;;;4945726;29;20117;-62
2024/02/10 08:12:27;;;;;;;7.60;2.70;;;9.20;99.90;;;;;;4950539;29;20027;-62
2024/02/10 08:14:54;;;;;;;7.55;2.95;;;9.30;99.90;;;;;;4944560;29;20399;-62
2024/02/10 08:17:21;;;;;;;7.32;2.97;;;9.30;99.90;;;;;;4948217;29;20468;-62
2024/02/10 08:19:50;;;;;;;8.32;3.00;;;9.30;99.90;;;;;;4945515;28;20539;-62
2024/02/10 08:22:16;;;;;;;7.07;2.77;;;9.30;99.90;;;;;;4948658;29;20031;-62
2024/02/10 08:24:43;;;;;;;7.72;3.00;;;9.40;99.90;;;;;;4950176;28;20035;-62
2024/02/10 08:27:09;;;;;;;7.18;2.88;;;9.40;99.90;;;;;;4949307;29;20072;-62
2024/02/10 08:29:35;;;;;;;7.05;2.90;;;9.50;99.90;;;;;;4953108;29;20034;-62
2024/02/10 08:32:02;;;;;;;7.90;2.60;;;9.50;99.90;;;;;;4934472;29;20035;-62
2024/02/10 08:34:35;;;;;;;8.80;2.42;;;9.60;99.90;;;;;;4952808;29;20022;-62
2024/02/10 08:37:04;;;;;;;7.65;2.20;;;9.60;99.90;;;;;;4950629;29;20503;-62
2024/02/10 08:39:30;;;;;;;6.88;2.50;;;9.70;99.90;;;;;;4953303;29;20423;-62
2024/02/10 08:41:55;;;;;;;10.38;2.90;;;9.80;99.90;;;;;;4956226;28;20110;-62
2024/02/10 08:44:24;;;;;;;6.85;2.40;;;9.90;99.90;;;;;;4952365;29;20027;-62
2024/02/10 08:46:50;;;;;;;5.93;2.35;;;9.90;99.90;;;;;;4953605;29;20039;-62
2024/02/10 08:49:17;;;;;;;6.80;2.20;;;10.00;99.90;;;;;;4952619;29;20035;-63
2024/02/10 08:51:49;;;;;;;6.72;2.65;;;10.10;99.90;;;;;;4949047;29;20023;-63
2024/02/10 08:54:18;;;;;;;5.65;2.03;;;10.30;99.90;;;;;;4952509;29;20018;-62
2024/02/10 08:56:44;;;;;;;4.90;1.65;;;10.40;99.90;;;;;;4953628;29;20027;-63
2024/02/10 08:59:12;;;;;;;6.85;2.28;;;10.70;99.90;;;;;;4951835;28;20027;-62
2024/02/10 09:01:41;;;;;;;5.75;1.95;;;10.90;99.90;;;;;;4962600;28;20053;-62
2024/02/10 09:04:09;;;;;;;5.57;2.00;;;11.10;99.90;;;;;;4935507;29;20503;-62
2024/02/10 09:06:36;;;;;;;5.82;1.98;;;11.30;99.90;;;;;;4951715;28;20054;-62
2024/02/10 09:09:12;;;;;;;5.57;1.90;;;11.50;99.90;;;;;;4952463;28;20372;-63
2024/02/10 09:11:39;;;;;;;5.20;1.80;;;11.80;99.90;;;;;;4954463;28;20037;-62
2024/02/10 09:14:06;;;;;;;5.90;2.10;;;11.90;99.90;;;;;;4952364;28;20074;-62
2024/02/10 09:16:32;;;;;;;7.22;1.95;;;12.10;99.90;;;;;;4956243;28;20019;-62
2024/02/10 09:18:59;;;;;;;3.35;1.40;;;12.40;99.90;;;;;;4935388;29;20101;-62
2024/02/10 09:21:24;;;;;;;6.22;1.90;;;12.60;99.90;;;;;;4950886;28;20118;-62
2024/02/10 09:23:50;;;;;;;4.72;1.85;;;12.70;99.90;;;;;;4953832;28;20117;-62
2024/02/10 09:26:17;;;;;;;5.47;1.80;;;12.80;99.90;;;;;;4951978;28;20514;-62
2024/02/10 09:28:44;;;;;;;4.82;1.75;;;12.70;99.90;;;;;;4952178;28;20113;-62
2024/02/10 09:31:13;;;;;;;5.53;1.83;;;12.80;99.90;;;;;;4952150;28;20030;-63
2024/02/10 09:33:39;;;;;;;4.85;1.88;;;12.90;99.90;;;;;;4954700;28;20042;-62
2024/02/10 09:36:11;;;;;;;3.95;1.42;;;12.80;99.90;;;;;;4950595;28;20038;-62
2024/02/10 09:38:38;;;;;;;5.60;1.92;;;12.90;99.90;;;;;;4936587;28;20055;-62
2024/02/10 09:41:07;;;;;;;4.15;1.50;;;13.00;99.90;;;;;;4949986;28;20023;-62
2024/02/10 09:43:36;;;;;;;4.53;1.63;;;13.10;99.90;;;;;;4954428;28;20463;-62
2024/02/10 09:46:10;;;;;;;5.60;1.80;;;13.10;99.90;;;;;;4957113;28;20024;-62
2024/02/10 09:48:41;;;;;;;5.05;1.60;;;13.10;99.90;;;;;;4951386;28;20019;-63
2024/02/10 09:51:08;;;;;;;5.70;1.90;;;13.10;99.90;;;;;;4947730;28;20486;-62
2024/02/10 09:53:34;;;;;;;4.85;1.80;;;13.10;99.90;;;;;;4951449;28;20519;-62
2024/02/10 09:56:00;;;;;;;5.32;1.80;;;13.10;99.90;;;;;;4948476;28;20487;-62
2024/02/10 09:58:26;;;;;;;3.60;1.45;;;13.30;99.90;;;;;;4954163;28;20041;-62
2024/02/10 10:00:53;;;;;;;4.35;1.45;;;13.60;99.90;;;;;;4956126;28;20081;-62
2024/02/10 10:03:20;;;;;;;4.03;1.40;;;14.10;99.90;;;;;;4931792;29;20035;-62
2024/02/10 10:05:47;;;;;;;4.90;1.42;;;14.30;99.90;;;;;;4948337;28;20066;-61
2024/02/10 10:08:13;;;;;;;4.20;1.38;;;14.30;99.90;;;;;;4950998;28;20139;-62
2024/02/10 10:10:40;;;;;;;4.55;1.50;;;14.40;99.90;;;;;;4950154;28;20035;-62
2024/02/10 10:13:09;;;;;;;4.70;1.40;;;14.70;99.90;;;;;;4950760;28;20110;-61
2024/02/10 10:15:37;;;;;;;3.90;1.30;;;15.00;99.90;;;;;;4949851;29;20456;-61
2024/02/10 10:18:11;;;;;;;3.15;1.17;;;14.90;99.90;;;;;;4951629;29;20632;-62
2024/02/10 10:20:37;;;;;;;6.18;1.63;;;15.00;99.90;;;;;;4950731;29;20107;-62
2024/02/10 10:23:02;;;;;;;3.92;1.23;;;15.10;99.90;;;;;;4951450;29;20047;-62
2024/02/10 10:25:28;;;;;;;3.42;1.30;;;15.00;99.90;;;;;;4951462;29;20035;-62
2024/02/10 10:27:56;;;;;;;3.70;1.40;;;14.80;99.90;;;;;;4951357;29;20035;-61
2024/02/10 10:30:25;;;;;;;4.43;1.73;;;14.70;99.90;;;;;;4948173;29;20066;-61
2024/02/10 10:32:53;;;;;;;3.92;1.33;;;14.60;99.90;;;;;;4951377;29;20027;-62
2024/02/10 10:35:19;;;;;;;4.85;1.30;;;14.90;99.90;;;;;;4949652;29;20019;-61
2024/02/10 10:37:48;;;;;;;4.55;1.38;;;15.10;99.90;;;;;;4951265;29;20019;-61
2024/02/10 10:40:13;;;;;;;5.13;1.45;;;15.20;99.90;;;;;;4953270;28;20019;-62
2024/02/10 10:42:41;;;;;;;4.70;1.42;;;15.40;99.90;;;;;;4951303;29;20467;-63
2024/02/10 10:45:08;;;;;;;4.35;1.33;;;15.50;99.90;;;;;;4949326;29;20032;-62
2024/02/10 10:47:40;;;;;;;3.50;1.40;;;15.70;99.90;;;;;;4951590;28;20060;-63
2024/02/10 10:50:07;;;;;;;3.35;1.23;;;15.80;99.90;;;;;;4943808;28;20540;-63
2024/02/10 10:52:38;;;;;;;4.03;1.35;;;16.10;99.90;;;;;;4947771;28;20082;-63
2024/02/10 10:55:06;;;;;;;4.28;1.30;;;16.20;99.90;;;;;;4942030;29;20130;-63
2024/02/10 10:57:33;;;;;;;2.22;0.98;;;16.20;99.90;;;;;;4948223;29;20170;-62
2024/02/10 11:00:15;;;;;;;4.82;1.17;;;16.40;99.90;;;;;;4941155;29;20137;-62
2024/02/10 11:02:42;;;;;;;3.60;1.23;;;16.80;99.90;;;;;;4950572;29;20198;-63
2024/02/10 11:05:13;;;;;;;3.25;1.10;;;17.00;99.90;;;;;;4950713;29;20042;-63
2024/02/10 11:07:43;;;;;;;3.97;1.20;;;17.10;99.90;;;;;;4951027;29;20032;-63
2024/02/10 11:10:08;;;;;;;;;;;17.60;99.90;;;;;;4948393;29;20028;-63
2024/02/10 11:12:37;;;;;;;4.60;1.25;;;17.80;99.90;;;;;;4951068;29;19940;-64
2024/02/10 11:15:09;;;;;;;2.50;1.05;;;18.10;99.90;;;;;;4949407;29;20023;-63
2024/02/10 11:17:34;;;;;;;2.55;1.10;;;18.30;99.90;;;;;;4950780;29;20038;-63
2024/02/10 11:20:05;;;;;;;3.92;1.48;;;18.40;99.90;;;;;;4948774;29;20051;-63
2024/02/10 11:22:34;;;;;;;3.88;1.40;;;18.40;99.90;;;;;;4949675;29;20174;-63
2024/02/10 11:25:01;;;;;;;4.25;1.30;;;18.30;99.90;;;;;;4948844;29;20085;-63
2024/02/10 11:27:29;;;;;;;3.08;1.33;;;18.30;99.90;;;;;;4951343;28;20023;-63
2024/02/10 11:29:58;;;;;;;3.17;1.27;;;18.40;99.90;;;;;;4948997;28;20073;-63
2024/02/10 11:32:26;;;;;;;4.82;1.40;;;18.40;99.90;;;;;;4950437;29;21241;-61
2024/02/10 11:34:52;;;;;;;5.70;1.20;;;18.50;99.90;;;;;;4950566;29;20023;-62
2024/02/10 11:37:17;;;;;;;3.25;1.23;;;18.60;99.90;;;;;;4950543;29;20078;-62
2024/02/10 11:39:44;;;;;;;3.80;1.20;;;18.70;99.90;;;;;;4950277;29;20027;-62
2024/02/10 11:42:10;;;;;;;2.90;1.10;;;19.40;99.90;;;;;;4948330;29;20043;-62
2024/02/10 11:44:37;;;;;;;2.75;1.10;;;20.30;99.90;;;;;;4947079;28;20035;-62
2024/02/10 11:47:04;;;;;;;2.97;1.05;;;20.90;99.30;;;;;;4948152;29;20023;-62
2024/02/10 11:49:30;;;;;;;4.40;1.20;;;21.00;97.00;;;;;;4950299;29;20035;-62
2024/02/10 11:51:57;;;;;;;2.40;1.00;;;20.70;97.60;;;;;;4944571;29;20078;-63
2024/02/10 11:54:30;;;;;;;4.28;1.33;;;20.50;97.60;;;;;;4949049;29;20118;-63
2024/02/10 11:56:55;;;;;;;1.90;1.00;;;20.80;97.80;;;;;;4950581;29;20035;-62
2024/02/10 11:59:25;;;;;;;3.72;1.10;;;21.30;96.30;;;;;;4949536;28;20020;-63
2024/02/10 12:01:51;;;;;;;4.55;1.00;;;21.40;95.10;;;;;;4953649;29;20403;-63
2024/02/10 12:04:17;;;;;;;2.30;0.90;;;21.40;96.30;;;;;;4953556;29;20019;-63
2024/02/10 12:06:50;;;;;;;4.47;1.25;;;21.50;95.80;;;;;;4954154;29;20032;-63
2024/02/10 12:09:17;;;;;;;2.90;0.90;;;21.70;94.00;;;;;;4951735;29;20028;-65
2024/02/10 12:11:42;;;;;;;1.65;0.90;;;21.80;94.30;;;;;;4934789;29;20024;-64
2024/02/10 12:14:12;;;;;;;4.03;1.00;;;21.80;92.50;;;;;;4949466;29;20031;-63
2024/02/10 12:16:38;;;;;;;2.80;1.00;;;22.00;91.00;;;;;;4948281;29;20027;-63
2024/02/10 12:19:06;;;;;;;3.63;1.10;;;21.80;92.90;;;;;;4952484;28;20058;-63
2024/02/10 12:21:32;;;;;;;2.40;1.08;;;21.60;95.20;;;;;;4951865;29;20032;-63
2024/02/10 12:24:00;;;;;;;2.88;0.90;;;21.40;93.60;;;;;;4950606;29;20042;-64
2024/02/10 12:26:25;;;;;;;2.53;0.90;;;21.20;94.60;;;;;;4953464;29;20047;-63
2024/02/10 12:28:51;;;;;;;3.08;1.10;;;21.00;96.00;;;;;;4953606;29;20039;-63
2024/02/10 12:31:19;;;;;;;2.20;0.90;;;20.90;96.30;;;;;;4952378;29;20023;-63
2024/02/10 12:33:45;;;;;;;3.90;0.98;;;20.80;95.20;;;;;;4953321;29;20409;-63
2024/02/10 12:36:11;;;;;;;3.00;1.40;;;20.30;95.60;;;;;;4950653;29;20023;-63
2024/02/10 12:38:38;;;;;;;3.75;1.13;;;19.50;98.60;;;;;;4952909;29;20523;-63
2024/02/10 12:41:04;;;;;;;3.42;1.10;;;18.90;99.90;;;;;;4937784;29;20674;-63
2024/02/10 12:43:31;;;;;;;2.70;1.10;;;18.60;99.90;;;;;;4952987;29;20025;-63
2024/02/10 12:45:57;;;;;;;2.83;1.00;;;18.50;99.90;;;;;;4953771;29;20490;-63
2024/02/10 12:48:23;;;;;;;3.25;1.10;;;18.40;99.90;;;;;;4952736;29;20107;-63
2024/02/10 12:50:49;;;;;;;3.05;1.13;;;18.20;99.90;;;;;;4950396;29;20051;-63